sensor_id;sensor_type;location;lat;lon;timestamp;temperature;humidity
3055;DHT22;1537;52.018;8.542;2024-02-15T00:00:02;11.80;99.90
3055;DHT22;1537;52.018;8.542;2024-02-15T00:03:31;11.80;99.90
3055;DHT22;1537;52.018;8.542;2024-02-15T00:06:56;11.80;99.90
3055;DHT22;1537;52.018;8.542;2024-02-15T00:10:21;11.80;99.90
3055;DHT22;1537;52.018;8.542;2024-02-15T00:13:46;11.80;99.90
3055;DHT22;1537;52.018;8.542;2024-02-15T00:17:10;11.70;99.90
3055;DHT22;1537;52.018;8.542;2024-02-15T00:20:34;11.70;99.90
3055;DHT22;1537;52.018;8.542;2024-02-15T00:23:59;11.70;99.90
3055;DHT22;1537;52.018;8.542;2024-02-15T00:27:24;11.70;99.90
3055;DHT22;1537;52.018;8.542;2024-02-15T00:30:48;11.70;99.90
3055;DHT22;1537;52.018;8.542;2024-02-15T00:34:12;11.70;99.90
3055;DHT22;1537;52.018;8.542;2024-02-15T00:37:37;11.70;99.90
3055;DHT22;1537;52.018;8.542;2024-02-15T00:41:01;11.70;99.90
3055;DHT22;1537;52.018;8.542;2024-02-15T00:44:27;11.70;99.90
3055;DHT22;1537;52.018;8.542;2024-02-15T00:47:52;11.70;99.90
3055;DHT22;1537;52.018;8.542;2024-02-15T00:51:16;11.80;99.90
3055;DHT22;1537;52.018;8.542;2024-02-15T00:54:41;11.70;99.90
3055;DHT22;1537;52.018;8.542;2024-02-15T00:58:05;11.70;99.90
3055;DHT22;1537;52.018;8.542;2024-02-15T01:01:30;11.70;99.90
3055;DHT22;1537;52.018;8.542;2024-02-15T01:04:55;11.70;99.90
3055;DHT22;1537;52.018;8.542;2024-02-15T01:08:22;11.70;99.90
3055;DHT22;1537;52.018;8.542;2024-02-15T01:11:46;11.80;99.90
3055;DHT22;1537;52.018;8.542;2024-02-15T01:15:10;11.70;99.90
3055;DHT22;1537;52.018;8.542;2024-02-15T01:18:36;11.70;99.90
3055;DHT22;1537;52.018;8.542;2024-02-15T01:22:01;11.70;99.90
3055;DHT22;1537;52.018;8.542;2024-02-15T01:25:26;11.80;99.90
3055;DHT22;1537;52.018;8.542;2024-02-15T01:28:50;11.70;99.90
3055;DHT22;1537;52.018;8.542;2024-02-15T01:32:14;11.70;99.90
3055;DHT22;1537;52.018;8.542;2024-02-15T01:35:39;11.70;99.90
3055;DHT22;1537;52.018;8.542;2024-02-15T01:39:03;11.70;99.90
3055;DHT22;1537;52.018;8.542;2024-02-15T01:42:27;11.70;99.90
3055;DHT22;1537;52.018;8.542;2024-02-15T01:45:51;11.70;99.90
3055;DHT22;1537;52.018;8.542;2024-02-15T01:49:15;11.70;99.90
3055;DHT22;1537;52.018;8.542;2024-02-15T01:52:41;11.70;99.90
3055;DHT22;1537;52.018;8.542;2024-02-15T01:56:07;11.70;99.90
3055;DHT22;1537;52.018;8.542;2024-02-15T01:59:31;11.70;99.90
3055;DHT22;1537;52.018;8.542;2024-02-15T02:02:56;11.70;99.90
3055;DHT22;1537;52.018;8.542;2024-02-15T02:06:26;11.70;99.90
3055;DHT22;1537;52.018;8.542;2024-02-15T02:09:52;11.70;99.90
3055;DHT22;1537;52.018;8.542;2024-02-15T02:13:17;11.70;99.90
3055;DHT22;1537;52.018;8.542;2024-02-15T02:16:42;11.70;99.90
3055;DHT22;1537;52.018;8.542;2024-02-15T02:20:10;11.70;99.90
3055;DHT22;1537;52.018;8.542;2024-02-15T02:23:37;11.70;99.90
3055;DHT22;1537;52.018;8.542;2024-02-15T02:27:05;11.70;99.90
3055;DHT22;1537;52.018;8.542;2024-02-15T02:30:31;11.70;99.90
3055;DHT22;1537;52.018;8.542;2024-02-15T02:33:55;11.70;99.90
3055;DHT22;1537;52.018;8.542;2024-02-15T02:37:21;11.70;99.90
3055;DHT22;1537;52.018;8.542;2024-02-15T02:40:45;11.70;99.90
3055;DHT22;1537;52.018;8.542;2024-02-15T02:44:10;11.70;99.90
3055;DHT22;1537;52.018;8.542;2024-02-15T02:47:34;11.70;99.90
3055;DHT22;1537;52.018;8.542;2024-02-15T02:50:58;11.70;99.90
3055;DHT22;1537;52.018;8.542;2024-02-15T02:54:22;11.70;99.90
3055;DHT22;1537;52.018;8.542;2024-02-15T02:57:46;11.70;99.90
3055;DHT22;1537;52.018;8.542;2024-02-15T03:01:11;11.80;99.90
3055;DHT22;1537;52.018;8.542;2024-02-15T03:04:35;11.80;99.90
3055;DHT22;1537;52.018;8.542;2024-02-15T03:08:02;11.70;99.90
3055;DHT22;1537;52.018;8.542;2024-02-15T03:11:26;11.70;99.90
3055;DHT22;1537;52.018;8.542;2024-02-15T03:14:50;11.70;99.90
3055;DHT22;1537;52.018;8.542;2024-02-15T03:18:16;11.70;99.90
3055;DHT22;1537;52.018;8.542;2024-02-15T03:21:40;11.70;99.90
3055;DHT22;1537;52.018;8.542;2024-02-15T03:25:08;11.70;99.90
3055;DHT22;1537;52.018;8.542;2024-02-15T03:28:32;11.70;99.90
3055;DHT22;1537;52.018;8.542;2024-02-15T03:31:58;11.70;99.90
3055;DHT22;1537;52.018;8.542;2024-02-15T03:35:25;11.70;99.90
3055;DHT22;1537;52.018;8.542;2024-02-15T03:38:52;11.70;99.90
3055;DHT22;1537;52.018;8.542;2024-02-15T03:42:19;11.80;99.90
3055;DHT22;1537;52.018;8.542;2024-02-15T03:45:43;11.80;99.90
3055;DHT22;1537;52.018;8.542;2024-02-15T03:49:08;11.80;99.90
3055;DHT22;1537;52.018;8.542;2024-02-15T03:52:35;11.80;99.90
3055;DHT22;1537;52.018;8.542;2024-02-15T03:56:00;11.80;99.90
3055;DHT22;1537;52.018;8.542;2024-02-15T03:59:24;11.80;99.90
3055;DHT22;1537;52.018;8.542;2024-02-15T04:02:50;11.80;99.90
3055;DHT22;1537;52.018;8.542;2024-02-15T04:06:14;11.80;99.90
3055;DHT22;1537;52.018;8.542;2024-02-15T04:09:42;11.80;99.90
3055;DHT22;1537;52.018;8.542;2024-02-15T04:13:06;11.80;99.90
3055;DHT22;1537;52.018;8.542;2024-02-15T04:16:30;11.80;99.90
3055;DHT22;1537;52.018;8.542;2024-02-15T04:19:59;11.80;99.90
3055;DHT22;1537;52.018;8.542;2024-02-15T04:23:24;11.90;99.90
3055;DHT22;1537;52.018;8.542;2024-02-15T04:26:50;11.80;99.90
3055;DHT22;1537;52.018;8.542;2024-02-15T04:30:14;11.80;99.90
3055;DHT22;1537;52.018;8.542;2024-02-15T04:33:40;11.80;99.90
3055;DHT22;1537;52.018;8.542;2024-02-15T04:37:04;11.80;99.90
3055;DHT22;1537;52.018;8.542;2024-02-15T04:40:30;11.80;99.90
3055;DHT22;1537;52.018;8.542;2024-02-15T04:43:56;11.80;99.90
3055;DHT22;1537;52.018;8.542;2024-02-15T04:47:21;11.80;99.90
3055;DHT22;1537;52.018;8.542;2024-02-15T04:50:45;11.80;99.90
3055;DHT22;1537;52.018;8.542;2024-02-15T04:54:10;11.90;99.90
3055;DHT22;1537;52.018;8.542;2024-02-15T04:57:36;11.90;99.90
3055;DHT22;1537;52.018;8.542;2024-02-15T05:01:01;11.80;99.90
3055;DHT22;1537;52.018;8.542;2024-02-15T05:04:27;11.80;99.90
3055;DHT22;1537;52.018;8.542;2024-02-15T05:07:51;11.80;99.90
3055;DHT22;1537;52.018;8.542;2024-02-15T05:11:15;11.80;99.90
3055;DHT22;1537;52.018;8.542;2024-02-15T05:14:41;11.80;99.90
3055;DHT22;1537;52.018;8.542;2024-02-15T05:18:06;11.80;99.90
3055;DHT22;1537;52.018;8.542;2024-02-15T05:21:32;11.80;99.90
3055;DHT22;1537;52.018;8.542;2024-02-15T05:24:56;11.80;99.90
3055;DHT22;1537;52.018;8.542;2024-02-15T05:28:21;11.70;99.90
3055;DHT22;1537;52.018;8.542;2024-02-15T05:31:49;11.70;99.90
3055;DHT22;1537;52.018;8.542;2024-02-15T05:35:15;11.70;99.90
3055;DHT22;1537;52.018;8.542;2024-02-15T05:38:41;11.70;99.90
3055;DHT22;1537;52.018;8.542;2024-02-15T05:42:08;11.70;99.90
3055;DHT22;1537;52.018;8.542;2024-02-15T05:45:33;11.70;99.90
3055;DHT22;1537;52.018;8.542;2024-02-15T05:49:02;11.70;99.90
3055;DHT22;1537;52.018;8.542;2024-02-15T05:52:28;11.70;99.90
3055;DHT22;1537;52.018;8.542;2024-02-15T05:55:52;11.70;99.90
3055;DHT22;1537;52.018;8.542;2024-02-15T05:59:16;11.70;99.90
3055;DHT22;1537;52.018;8.542;2024-02-15T06:02:42;11.70;99.90
3055;DHT22;1537;52.018;8.542;2024-02-15T06:06:06;11.80;99.90
3055;DHT22;1537;52.018;8.542;2024-02-15T06:09:32;11.70;99.90
3055;DHT22;1537;52.018;8.542;2024-02-15T06:12:59;11.70;99.90
3055;DHT22;1537;52.018;8.542;2024-02-15T06:16:23;11.80;99.90
3055;DHT22;1537;52.018;8.542;2024-02-15T06:19:47;11.80;99.90
3055;DHT22;1537;52.018;8.542;2024-02-15T06:23:11;11.80;99.90
3055;DHT22;1537;52.018;8.542;2024-02-15T06:26:39;11.80;99.90
3055;DHT22;1537;52.018;8.542;2024-02-15T06:30:04;11.80;99.90
3055;DHT22;1537;52.018;8.542;2024-02-15T06:33:46;11.80;99.90
3055;DHT22;1537;52.018;8.542;2024-02-15T06:37:36;11.90;99.90
3055;DHT22;1537;52.018;8.542;2024-02-15T06:41:18;11.90;99.90
3055;DHT22;1537;52.018;8.542;2024-02-15T06:44:49;11.90;99.90
3055;DHT22;1537;52.018;8.542;2024-02-15T06:48:13;11.90;99.90
3055;DHT22;1537;52.018;8.542;2024-02-15T06:51:37;11.90;99.90
3055;DHT22;1537;52.018;8.542;2024-02-15T06:55:01;11.90;99.90
3055;DHT22;1537;52.018;8.542;2024-02-15T06:58:25;11.90;99.90
3055;DHT22;1537;52.018;8.542;2024-02-15T07:01:51;11.90;99.90
3055;DHT22;1537;52.018;8.542;2024-02-15T07:05:15;11.90;99.90
3055;DHT22;1537;52.018;8.542;2024-02-15T07:08:39;11.90;99.90
3055;DHT22;1537;52.018;8.542;2024-02-15T07:12:04;11.90;99.90
3055;DHT22;1537;52.018;8.542;2024-02-15T07:15:28;11.90;99.90
3055;DHT22;1537;52.018;8.542;2024-02-15T07:18:56;11.90;99.90
3055;DHT22;1537;52.018;8.542;2024-02-15T07:22:20;11.90;99.90
3055;DHT22;1537;52.018;8.542;2024-02-15T07:25:44;11.90;99.90
3055;DHT22;1537;52.018;8.542;2024-02-15T07:29:13;11.90;99.90
3055;DHT22;1537;52.018;8.542;2024-02-15T07:32:38;12.00;99.90
3055;DHT22;1537;52.018;8.542;2024-02-15T07:36:06;12.00;99.90
3055;DHT22;1537;52.018;8.542;2024-02-15T07:39:30;12.00;99.90
3055;DHT22;1537;52.018;8.542;2024-02-15T07:42:56;12.10;99.90
3055;DHT22;1537;52.018;8.542;2024-02-15T07:46:21;12.10;99.90
3055;DHT22;1537;52.018;8.542;2024-02-15T07:49:46;12.20;99.90
3055;DHT22;1537;52.018;8.542;2024-02-15T07:53:11;12.20;99.90
3055;DHT22;1537;52.018;8.542;2024-02-15T07:56:36;12.20;99.90
3055;DHT22;1537;52.018;8.542;2024-02-15T08:00:00;12.20;99.90
3055;DHT22;1537;52.018;8.542;2024-02-15T08:03:32;12.30;99.90
3055;DHT22;1537;52.018;8.542;2024-02-15T08:06:57;12.40;99.90
3055;DHT22;1537;52.018;8.542;2024-02-15T08:10:22;12.40;99.90
3055;DHT22;1537;52.018;8.542;2024-02-15T08:13:46;12.30;99.90
3055;DHT22;1537;52.018;8.542;2024-02-15T08:17:12;12.30;99.90
3055;DHT22;1537;52.018;8.542;2024-02-15T08:20:35;12.30;99.90
3055;DHT22;1537;52.018;8.542;2024-02-15T08:24:00;12.30;99.90
3055;DHT22;1537;52.018;8.542;2024-02-15T08:27:29;12.30;99.90
3055;DHT22;1537;52.018;8.542;2024-02-15T08:30:55;12.30;99.90
3055;DHT22;1537;52.018;8.542;2024-02-15T08:34:19;12.30;99.90
3055;DHT22;1537;52.018;8.542;2024-02-15T08:37:43;12.30;99.90
3055;DHT22;1537;52.018;8.542;2024-02-15T08:41:12;12.20;99.90
3055;DHT22;1537;52.018;8.542;2024-02-15T08:44:37;12.20;99.90
3055;DHT22;1537;52.018;8.542;2024-02-15T08:48:01;12.20;99.90
3055;DHT22;1537;52.018;8.542;2024-02-15T08:51:27;12.20;99.90
3055;DHT22;1537;52.018;8.542;2024-02-15T08:54:51;12.20;99.90
3055;DHT22;1537;52.018;8.542;2024-02-15T08:58:14;12.20;99.90
3055;DHT22;1537;52.018;8.542;2024-02-15T09:01:39;12.10;99.90
3055;DHT22;1537;52.018;8.542;2024-02-15T09:05:03;12.10;99.90
3055;DHT22;1537;52.018;8.542;2024-02-15T09:08:27;12.00;99.90
3055;DHT22;1537;52.018;8.542;2024-02-15T09:11:52;12.10;99.90
3055;DHT22;1537;52.018;8.542;2024-02-15T09:15:16;12.10;99.90
3055;DHT22;1537;52.018;8.542;2024-02-15T09:18:42;12.10;99.90
3055;DHT22;1537;52.018;8.542;2024-02-15T09:22:08;12.10;99.90
3055;DHT22;1537;52.018;8.542;2024-02-15T09:25:32;12.10;99.90
3055;DHT22;1537;52.018;8.542;2024-02-15T09:28:55;12.10;99.90
3055;DHT22;1537;52.018;8.542;2024-02-15T09:32:19;12.10;99.90
3055;DHT22;1537;52.018;8.542;2024-02-15T09:35:46;12.10;99.90
3055;DHT22;1537;52.018;8.542;2024-02-15T09:39:10;12.10;99.90
3055;DHT22;1537;52.018;8.542;2024-02-15T09:42:36;12.20;99.90
3055;DHT22;1537;52.018;8.542;2024-02-15T09:46:01;12.20;99.90
3055;DHT22;1537;52.018;8.542;2024-02-15T09:49:27;12.20;99.90
3055;DHT22;1537;52.018;8.542;2024-02-15T09:52:53;12.20;99.90
3055;DHT22;1537;52.018;8.542;2024-02-15T09:56:17;12.20;99.90
3055;DHT22;1537;52.018;8.542;2024-02-15T09:59:42;12.20;99.90
3055;DHT22;1537;52.018;8.542;2024-02-15T10:03:07;12.30;99.90
3055;DHT22;1537;52.018;8.542;2024-02-15T10:06:32;12.30;99.90
3055;DHT22;1537;52.018;8.542;2024-02-15T10:09:57;12.30;99.90
3055;DHT22;1537;52.018;8.542;2024-02-15T10:13:38;12.30;99.90
3055;DHT22;1537;52.018;8.542;2024-02-15T10:17:06;12.40;99.90
3055;DHT22;1537;52.018;8.542;2024-02-15T10:20:32;12.30;99.90
3055;DHT22;1537;52.018;8.542;2024-02-15T10:24:05;12.30;99.90
3055;DHT22;1537;52.018;8.542;2024-02-15T10:27:31;12.40;99.90
3055;DHT22;1537;52.018;8.542;2024-02-15T10:31:07;12.40;99.90
3055;DHT22;1537;52.018;8.542;2024-02-15T10:34:34;12.40;99.90
3055;DHT22;1537;52.018;8.542;2024-02-15T10:38:05;12.40;99.90
3055;DHT22;1537;52.018;8.542;2024-02-15T10:41:30;12.40;99.90
3055;DHT22;1537;52.018;8.542;2024-02-15T10:44:55;12.40;99.90
3055;DHT22;1537;52.018;8.542;2024-02-15T10:48:19;12.30;99.90
3055;DHT22;1537;52.018;8.542;2024-02-15T10:51:44;12.20;99.90
3055;DHT22;1537;52.018;8.542;2024-02-15T10:55:09;12.20;99.90
3055;DHT22;1537;52.018;8.542;2024-02-15T10:58:43;12.20;99.90
3055;DHT22;1537;52.018;8.542;2024-02-15T11:02:28;12.10;99.90
3055;DHT22;1537;52.018;8.542;2024-02-15T11:05:55;12.10;99.90
3055;DHT22;1537;52.018;8.542;2024-02-15T11:09:22;12.10;99.90
3055;DHT22;1537;52.018;8.542;2024-02-15T11:12:47;12.00;99.90
3055;DHT22;1537;52.018;8.542;2024-02-15T11:16:39;12.00;99.90
3055;DHT22;1537;52.018;8.542;2024-02-15T11:20:05;11.90;99.90
3055;DHT22;1537;52.018;8.542;2024-02-15T11:23:32;11.90;99.90
3055;DHT22;1537;52.018;8.542;2024-02-15T11:26:59;11.90;99.90
3055;DHT22;1537;52.018;8.542;2024-02-15T11:30:31;12.00;99.90
3055;DHT22;1537;52.018;8.542;2024-02-15T11:33:59;12.00;99.90
3055;DHT22;1537;52.018;8.542;2024-02-15T11:37:55;11.90;99.90
3055;DHT22;1537;52.018;8.542;2024-02-15T11:41:21;11.90;99.90
3055;DHT22;1537;52.018;8.542;2024-02-15T11:44:46;11.90;99.90
3055;DHT22;1537;52.018;8.542;2024-02-15T11:48:11;11.90;99.90
3055;DHT22;1537;52.018;8.542;2024-02-15T11:51:36;11.80;99.90
3055;DHT22;1537;52.018;8.542;2024-02-15T11:55:07;11.80;99.90
3055;DHT22;1537;52.018;8.542;2024-02-15T11:58:32;11.80;99.90
3055;DHT22;1537;52.018;8.542;2024-02-15T12:02:04;11.90;99.90
3055;DHT22;1537;52.018;8.542;2024-02-15T12:05:45;11.90;99.90
3055;DHT22;1537;52.018;8.542;2024-02-15T12:09:26;12.00;99.90
3055;DHT22;1537;52.018;8.542;2024-02-15T12:13:09;12.10;99.90
3055;DHT22;1537;52.018;8.542;2024-02-15T12:17:00;12.10;99.90
3055;DHT22;1537;52.018;8.542;2024-02-15T12:20:41;12.20;99.90
3055;DHT22;1537;52.018;8.542;2024-02-15T12:24:05;12.20;99.90
3055;DHT22;1537;52.018;8.542;2024-02-15T12:27:29;12.30;99.90
3055;DHT22;1537;52.018;8.542;2024-02-15T12:30:56;12.30;99.90
3055;DHT22;1537;52.018;8.542;2024-02-15T12:34:20;12.30;99.90
3055;DHT22;1537;52.018;8.542;2024-02-15T12:37:44;12.40;99.90
3055;DHT22;1537;52.018;8.542;2024-02-15T12:41:18;12.40;99.90
3055;DHT22;1537;52.018;8.542;2024-02-15T12:44:46;12.50;99.90
3055;DHT22;1537;52.018;8.542;2024-02-15T12:48:11;12.50;99.90
3055;DHT22;1537;52.018;8.542;2024-02-15T12:51:35;12.50;99.90
3055;DHT22;1537;52.018;8.542;2024-02-15T12:55:10;12.60;99.90
3055;DHT22;1537;52.018;8.542;2024-02-15T12:58:33;12.70;99.90
3055;DHT22;1537;52.018;8.542;2024-02-15T13:01:57;12.90;99.90
3055;DHT22;1537;52.018;8.542;2024-02-15T13:05:24;13.10;99.90
3055;DHT22;1537;52.018;8.542;2024-02-15T13:08:48;13.20;99.90
3055;DHT22;1537;52.018;8.542;2024-02-15T13:12:12;13.30;99.90
3055;DHT22;1537;52.018;8.542;2024-02-15T13:15:36;13.30;99.90
3055;DHT22;1537;52.018;8.542;2024-02-15T13:19:00;13.20;99.90
3055;DHT22;1537;52.018;8.542;2024-02-15T13:22:25;13.10;99.90
3055;DHT22;1537;52.018;8.542;2024-02-15T13:25:49;13.10;99.90
3055;DHT22;1537;52.018;8.542;2024-02-15T13:29:14;13.20;99.90
3055;DHT22;1537;52.018;8.542;2024-02-15T13:32:38;13.20;99.90
3055;DHT22;1537;52.018;8.542;2024-02-15T13:36:03;13.30;99.90
3055;DHT22;1537;52.018;8.542;2024-02-15T13:39:34;13.30;99.90
3055;DHT22;1537;52.018;8.542;2024-02-15T13:42:59;13.30;99.90
3055;DHT22;1537;52.018;8.542;2024-02-15T13:46:22;13.30;99.90
3055;DHT22;1537;52.018;8.542;2024-02-15T13:49:46;13.20;99.90
3055;DHT22;1537;52.018;8.542;2024-02-15T13:53:11;13.40;99.90
3055;DHT22;1537;52.018;8.542;2024-02-15T13:56:37;13.40;99.90
3055;DHT22;1537;52.018;8.542;2024-02-15T14:00:01;13.50;99.90
3055;DHT22;1537;52.018;8.542;2024-02-15T14:03:33;13.50;99.90
3055;DHT22;1537;52.018;8.542;2024-02-15T14:06:57;13.60;99.90
3055;DHT22;1537;52.018;8.542;2024-02-15T14:10:21;13.70;99.90
3055;DHT22;1537;52.018;8.542;2024-02-15T14:13:46;13.70;99.90
3055;DHT22;1537;52.018;8.542;2024-02-15T14:17:10;13.80;99.90
3055;DHT22;1537;52.018;8.542;2024-02-15T14:20:33;13.80;99.90
3055;DHT22;1537;52.018;8.542;2024-02-15T14:23:59;13.80;99.90
3055;DHT22;1537;52.018;8.542;2024-02-15T14:27:23;13.80;99.90
3055;DHT22;1537;52.018;8.542;2024-02-15T14:30:48;13.90;99.90
3055;DHT22;1537;52.018;8.542;2024-02-15T14:34:29;13.90;99.90
3055;DHT22;1537;52.018;8.542;2024-02-15T14:37:53;13.90;99.90
3055;DHT22;1537;52.018;8.542;2024-02-15T14:41:19;13.90;99.90
3055;DHT22;1537;52.018;8.542;2024-02-15T14:44:54;13.90;99.90
3055;DHT22;1537;52.018;8.542;2024-02-15T14:48:19;14.00;99.90
3055;DHT22;1537;52.018;8.542;2024-02-15T14:51:44;14.00;99.90
3055;DHT22;1537;52.018;8.542;2024-02-15T14:55:08;14.10;99.90
3055;DHT22;1537;52.018;8.542;2024-02-15T14:58:32;14.00;99.90
3055;DHT22;1537;52.018;8.542;2024-02-15T15:01:56;14.10;99.90
3055;DHT22;1537;52.018;8.542;2024-02-15T15:05:34;14.00;99.90
3055;DHT22;1537;52.018;8.542;2024-02-15T15:09:15;14.10;99.90
3055;DHT22;1537;52.018;8.542;2024-02-15T15:12:56;14.00;99.90
3055;DHT22;1537;52.018;8.542;2024-02-15T15:16:19;14.00;99.90
3055;DHT22;1537;52.018;8.542;2024-02-15T15:19:44;14.00;99.90
3055;DHT22;1537;52.018;8.542;2024-02-15T15:23:09;14.00;99.90
3055;DHT22;1537;52.018;8.542;2024-02-15T15:26:33;14.00;99.90
3055;DHT22;1537;52.018;8.542;2024-02-15T15:29:56;14.00;99.90
3055;DHT22;1537;52.018;8.542;2024-02-15T15:33:20;14.00;99.90
3055;DHT22;1537;52.018;8.542;2024-02-15T15:36:44;14.00;99.90
3055;DHT22;1537;52.018;8.542;2024-02-15T15:40:11;14.10;99.90
3055;DHT22;1537;52.018;8.542;2024-02-15T15:43:35;14.00;99.90
3055;DHT22;1537;52.018;8.542;2024-02-15T15:46:59;14.00;99.90
3055;DHT22;1537;52.018;8.542;2024-02-15T15:50:23;14.10;99.90
3055;DHT22;1537;52.018;8.542;2024-02-15T15:53:46;14.10;99.90
3055;DHT22;1537;52.018;8.542;2024-02-15T15:57:13;14.10;99.90
3055;DHT22;1537;52.018;8.542;2024-02-15T16:00:36;14.10;99.90
3055;DHT22;1537;52.018;8.542;2024-02-15T16:04:00;14.10;99.90
3055;DHT22;1537;52.018;8.542;2024-02-15T16:07:24;14.10;99.90
3055;DHT22;1537;52.018;8.542;2024-02-15T16:10:48;14.10;99.90
3055;DHT22;1537;52.018;8.542;2024-02-15T16:14:13;14.10;99.90
3055;DHT22;1537;52.018;8.542;2024-02-15T16:17:43;14.10;99.90
3055;DHT22;1537;52.018;8.542;2024-02-15T16:21:10;14.10;99.90
3055;DHT22;1537;52.018;8.542;2024-02-15T16:24:34;14.10;99.90
3055;DHT22;1537;52.018;8.542;2024-02-15T16:27:57;14.10;99.90
3055;DHT22;1537;52.018;8.542;2024-02-15T16:31:24;14.10;99.90
3055;DHT22;1537;52.018;8.542;2024-02-15T16:34:48;14.10;99.90
3055;DHT22;1537;52.018;8.542;2024-02-15T16:38:11;14.20;99.90
3055;DHT22;1537;52.018;8.542;2024-02-15T16:41:35;14.20;99.90
3055;DHT22;1537;52.018;8.542;2024-02-15T16:44:58;14.20;99.90
3055;DHT22;1537;52.018;8.542;2024-02-15T16:48:24;14.20;99.90
3055;DHT22;1537;52.018;8.542;2024-02-15T16:51:48;14.20;99.90
3055;DHT22;1537;52.018;8.542;2024-02-15T16:55:11;14.10;99.90
3055;DHT22;1537;52.018;8.542;2024-02-15T16:58:35;14.00;99.90
3055;DHT22;1537;52.018;8.542;2024-02-15T17:01:59;13.90;99.90
3055;DHT22;1537;52.018;8.542;2024-02-15T17:05:24;13.80;99.90
3055;DHT22;1537;52.018;8.542;2024-02-15T17:08:48;13.80;99.90
3055;DHT22;1537;52.018;8.542;2024-02-15T17:12:17;13.70;99.90
3055;DHT22;1537;52.018;8.542;2024-02-15T17:15:41;13.70;99.90
3055;DHT22;1537;52.018;8.542;2024-02-15T17:19:05;13.60;99.90
3055;DHT22;1537;52.018;8.542;2024-02-15T17:22:31;13.60;99.90
3055;DHT22;1537;52.018;8.542;2024-02-15T17:25:55;13.60;99.90
3055;DHT22;1537;52.018;8.542;2024-02-15T17:29:19;13.50;99.90
3055;DHT22;1537;52.018;8.542;2024-02-15T17:32:42;13.40;99.90
3055;DHT22;1537;52.018;8.542;2024-02-15T17:36:06;13.40;99.90
3055;DHT22;1537;52.018;8.542;2024-02-15T17:39:32;13.40;99.90
3055;DHT22;1537;52.018;8.542;2024-02-15T17:42:56;13.30;99.90
3055;DHT22;1537;52.018;8.542;2024-02-15T17:46:19;13.40;99.90
3055;DHT22;1537;52.018;8.542;2024-02-15T17:49:43;13.40;99.90
3055;DHT22;1537;52.018;8.542;2024-02-15T17:53:08;13.30;99.90
3055;DHT22;1537;52.018;8.542;2024-02-15T17:56:33;13.30;99.90
3055;DHT22;1537;52.018;8.542;2024-02-15T17:59:58;13.30;99.90
3055;DHT22;1537;52.018;8.542;2024-02-15T18:03:22;13.30;99.90
3055;DHT22;1537;52.018;8.542;2024-02-15T18:06:47;13.20;99.90
3055;DHT22;1537;52.018;8.542;2024-02-15T18:10:11;13.20;99.90
3055;DHT22;1537;52.018;8.542;2024-02-15T18:13:38;13.20;99.90
3055;DHT22;1537;52.018;8.542;2024-02-15T18:17:02;13.20;99.90
3055;DHT22;1537;52.018;8.542;2024-02-15T18:20:27;13.20;99.90
3055;DHT22;1537;52.018;8.542;2024-02-15T18:23:51;13.20;99.90
3055;DHT22;1537;52.018;8.542;2024-02-15T18:27:17;13.20;99.90
3055;DHT22;1537;52.018;8.542;2024-02-15T18:30:44;13.20;99.90
3055;DHT22;1537;52.018;8.542;2024-02-15T18:34:10;13.20;99.90
3055;DHT22;1537;52.018;8.542;2024-02-15T18:37:33;13.20;99.90
3055;DHT22;1537;52.018;8.542;2024-02-15T18:40:58;13.10;99.90
3055;DHT22;1537;52.018;8.542;2024-02-15T18:44:27;13.10;99.90
3055;DHT22;1537;52.018;8.542;2024-02-15T18:47:52;13.10;99.90
3055;DHT22;1537;52.018;8.542;2024-02-15T18:51:16;13.10;99.90
3055;DHT22;1537;52.018;8.542;2024-02-15T18:54:40;13.10;99.90
3055;DHT22;1537;52.018;8.542;2024-02-15T18:58:04;13.20;99.90
3055;DHT22;1537;52.018;8.542;2024-02-15T19:01:28;13.20;99.90
3055;DHT22;1537;52.018;8.542;2024-02-15T19:04:53;13.20;99.90
3055;DHT22;1537;52.018;8.542;2024-02-15T19:08:16;13.20;99.90
3055;DHT22;1537;52.018;8.542;2024-02-15T19:11:41;13.20;99.90
3055;DHT22;1537;52.018;8.542;2024-02-15T19:15:07;13.20;99.90
3055;DHT22;1537;52.018;8.542;2024-02-15T19:18:31;13.30;99.90
3055;DHT22;1537;52.018;8.542;2024-02-15T19:21:56;13.30;99.90
3055;DHT22;1537;52.018;8.542;2024-02-15T19:25:20;13.30;99.90
3055;DHT22;1537;52.018;8.542;2024-02-15T19:28:44;13.30;99.90
3055;DHT22;1537;52.018;8.542;2024-02-15T19:32:08;13.30;99.90
3055;DHT22;1537;52.018;8.542;2024-02-15T19:35:31;13.30;99.90
3055;DHT22;1537;52.018;8.542;2024-02-15T19:38:56;13.20;99.90
3055;DHT22;1537;52.018;8.542;2024-02-15T19:42:23;13.30;99.90
3055;DHT22;1537;52.018;8.542;2024-02-15T19:45:46;13.30;99.90
3055;DHT22;1537;52.018;8.542;2024-02-15T19:49:11;13.30;99.90
3055;DHT22;1537;52.018;8.542;2024-02-15T19:52:36;13.30;99.90
3055;DHT22;1537;52.018;8.542;2024-02-15T19:56:02;13.30;99.90
3055;DHT22;1537;52.018;8.542;2024-02-15T19:59:26;13.30;99.90
3055;DHT22;1537;52.018;8.542;2024-02-15T20:02:50;13.30;99.90
3055;DHT22;1537;52.018;8.542;2024-02-15T20:06:21;13.30;99.90
3055;DHT22;1537;52.018;8.542;2024-02-15T20:09:57;13.30;99.90
3055;DHT22;1537;52.018;8.542;2024-02-15T20:13:28;13.30;99.90
3055;DHT22;1537;52.018;8.542;2024-02-15T20:16:54;13.30;99.90
3055;DHT22;1537;52.018;8.542;2024-02-15T20:20:20;13.40;99.90
3055;DHT22;1537;52.018;8.542;2024-02-15T20:23:47;13.40;99.90
3055;DHT22;1537;52.018;8.542;2024-02-15T20:27:13;13.40;99.90
3055;DHT22;1537;52.018;8.542;2024-02-15T20:30:46;13.30;99.90
3055;DHT22;1537;52.018;8.542;2024-02-15T20:34:10;13.30;99.90
3055;DHT22;1537;52.018;8.542;2024-02-15T20:37:35;13.30;99.90
3055;DHT22;1537;52.018;8.542;2024-02-15T20:41:07;13.30;99.90
3055;DHT22;1537;52.018;8.542;2024-02-15T20:44:37;13.30;99.90
3055;DHT22;1537;52.018;8.542;2024-02-15T20:48:08;13.20;99.90
3055;DHT22;1537;52.018;8.542;2024-02-15T20:51:35;13.10;99.90
3055;DHT22;1537;52.018;8.542;2024-02-15T20:55:12;13.10;99.90
3055;DHT22;1537;52.018;8.542;2024-02-15T20:58:36;13.10;99.90
3055;DHT22;1537;52.018;8.542;2024-02-15T21:02:03;13.10;99.90
3055;DHT22;1537;52.018;8.542;2024-02-15T21:05:30;13.10;99.90
3055;DHT22;1537;52.018;8.542;2024-02-15T21:09:03;13.10;99.90
3055;DHT22;1537;52.018;8.542;2024-02-15T21:12:37;13.10;99.90
3055;DHT22;1537;52.018;8.542;2024-02-15T21:16:08;13.10;99.90
3055;DHT22;1537;52.018;8.542;2024-02-15T21:19:32;13.10;99.90
3055;DHT22;1537;52.018;8.542;2024-02-15T21:23:06;13.10;99.90
3055;DHT22;1537;52.018;8.542;2024-02-15T21:26:32;13.10;99.90
3055;DHT22;1537;52.018;8.542;2024-02-15T21:29:59;13.10;99.90
3055;DHT22;1537;52.018;8.542;2024-02-15T21:33:28;13.10;99.90
3055;DHT22;1537;52.018;8.542;2024-02-15T21:36:55;13.10;99.90
3055;DHT22;1537;52.018;8.542;2024-02-15T21:40:22;13.00;99.90
3055;DHT22;1537;52.018;8.542;2024-02-15T21:43:52;13.00;99.90
3055;DHT22;1537;52.018;8.542;2024-02-15T21:47:18;12.90;99.90
3055;DHT22;1537;52.018;8.542;2024-02-15T21:50:44;12.90;99.90
3055;DHT22;1537;52.018;8.542;2024-02-15T21:54:10;12.90;99.90
3055;DHT22;1537;52.018;8.542;2024-02-15T21:57:38;12.80;99.90
3055;DHT22;1537;52.018;8.542;2024-02-15T22:01:11;12.80;99.90
3055;DHT22;1537;52.018;8.542;2024-02-15T22:04:41;12.70;99.90
3055;DHT22;1537;52.018;8.542;2024-02-15T22:08:15;12.70;99.90
3055;DHT22;1537;52.018;8.542;2024-02-15T22:11:47;12.70;99.90
3055;DHT22;1537;52.018;8.542;2024-02-15T22:15:17;12.60;99.90
3055;DHT22;1537;52.018;8.542;2024-02-15T22:18:43;12.60;99.90
3055;DHT22;1537;52.018;8.542;2024-02-15T22:22:08;12.50;99.90
3055;DHT22;1537;52.018;8.542;2024-02-15T22:25:32;12.50;99.90